Terminal Aerodrome Forecast
Issued by NWS Grand Forks, ND

Home | Current Version | Previous Version | Graphics & Text | Print | Product List | Glossary On
Versions: 1 2 3 4 5 6 7 8 9 10 11 12 13 14 15 16 17 18
000
FTUS43 KFGF 281900 AAA
TAFFAR
TAF AMD
KFAR 281901Z 2819/2918 30020G27KT P6SM OVC025
      TEMPO 2819/2820 -RA
     FM282000 31014G20KT P6SM OVC030
     FM290600 32007KT P6SM OVC050
     FM291700 29004KT P6SM OVC015=

USA.gov is the U.S. government's official web portal to all federal, state and local government web resources and services.